.
WxDataArchive / Data Records for 2009-04-07
2009-04-06 April 2009 2009-04-08

Data Records for Tuesday, 07 April 2009

Time	Temp	Chill	HIndex	Humid	Dewpt	 Wind 	HiWind	WindDir	Rain 	Barom 
-----	----	-----	------	-----	-----	------	------	-------	-----	----- 
00:00	30.7	30.7	30.7	64	20.0	2	5	315	0.00	29.782 
00:05	30.7	30.7	30.7	65	20.3	1	6	270	0.00	29.781 
00:10	30.7	30.7	30.7	65	20.3	2	6	292	0.00	29.779 
00:15	30.6	30.6	30.6	65	20.3	1	4	292	0.00	29.775 
00:20	30.4	30.4	30.4	66	20.4	2	7	270	0.00	29.773 
00:25	30.4	30.4	30.4	66	20.4	1	6	315	0.00	29.771 
00:30	30.3	30.3	30.3	66	20.3	2	9	270	0.00	29.771 
00:35	30.1	30.1	30.1	66	20.1	2	5	292	0.00	29.769 
00:40	30.1	30.1	30.1	66	20.1	1	4	315	0.00	29.769 
00:45	30.1	30.1	30.1	66	20.1	1	3	270	0.00	29.768 
00:50	30.1	30.1	30.1	66	20.1	2	7	315	0.00	29.768 
00:55	30.0	30.0	30.0	66	20.0	2	5	338	0.00	29.768 
01:00	30.0	30.0	30.0	65	19.7	2	6	315	0.00	29.767 
01:05	29.8	29.8	29.8	65	19.5	3	12	270	0.00	29.766 
01:10	30.0	30.0	30.0	64	19.3	3	9	338	0.00	29.765 
01:15	29.8	29.8	29.8	64	19.1	2	6	338	0.00	29.764 
01:20	29.8	29.8	29.8	64	19.1	1	5	315	0.00	29.761 
01:25	29.8	29.8	29.8	64	19.1	1	3	338	0.00	29.761 
01:30	29.8	29.8	29.8	65	19.5	2	6	292	0.00	29.759 
01:35	29.8	29.8	29.8	64	19.1	3	6	315	0.00	29.759 
01:40	30.0	30.0	30.0	64	19.3	2	6	338	0.00	29.758 
01:45	30.0	30.0	30.0	64	19.3	2	4	315	0.00	29.758 
01:50	30.0	30.0	30.0	64	19.3	1	3	292	0.00	29.757 
01:55	30.1	30.1	30.1	64	19.4	2	9	292	0.00	29.756 
02:00	30.0	30.0	30.0	63	19.0	2	5	270	0.00	29.755 
02:05	30.0	30.0	30.0	64	19.3	1	5	270	0.00	29.755 
02:10	29.8	29.8	29.8	63	18.8	2	7	338	0.00	29.755 
02:15	30.0	30.0	30.0	63	19.0	3	10	292	0.00	29.755 
02:20	30.0	30.0	30.0	63	19.0	3	7	292	0.00	29.755 
02:25	30.0	30.0	30.0	63	19.0	2	7	315	0.00	29.755 
02:30	29.8	29.8	29.8	63	18.8	1	4	292	0.00	29.753 
02:35	29.8	29.8	29.8	63	18.8	2	7	270	0.00	29.752 
02:40	29.8	29.8	29.8	63	18.8	1	4	292	0.00	29.751 
02:45	29.8	29.8	29.8	63	18.8	2	9	338	0.00	29.751 
02:50	29.8	29.8	29.8	63	18.8	2	10	315	0.00	29.750 
02:55	29.8	29.8	29.8	63	18.8	2	10	338	0.00	29.750 
03:00	29.8	29.8	29.8	63	18.8	3	9	315	0.00	29.750 
03:05	29.8	29.8	29.8	63	18.8	2	5	248	0.00	29.751 
03:10	29.8	29.8	29.8	63	18.8	2	5	338	0.00	29.751 
03:15	29.8	29.8	29.8	63	18.8	2	7	292	0.00	29.751 
03:20	29.8	29.8	29.8	63	18.8	1	3	270	0.00	29.751 
03:25	29.8	29.8	29.8	64	19.1	1	5	270	0.00	29.751 
03:30	30.0	30.0	30.0	63	19.0	2	6	270	0.00	29.751 
03:35	30.0	30.0	30.0	63	19.0	2	5	270	0.00	29.750 
03:40	30.1	30.1	30.1	63	19.0	1	5	270	0.00	29.749 
03:45	30.3	30.3	30.3	64	19.6	1	5	315	0.00	29.750 
03:50	30.3	30.3	30.3	64	19.6	2	5	292	0.00	29.750 
03:55	30.3	30.3	30.3	64	19.6	2	5	315	0.00	29.749 
04:00	30.3	30.3	30.3	64	19.6	2	4	270	0.00	29.748 
04:05	30.4	30.4	30.4	64	19.7	1	4	292	0.00	29.749 
04:10	30.4	30.4	30.4	65	20.1	1	4	315	0.00	29.748 
04:15	30.4	30.4	30.4	65	20.1	2	7	270	0.00	29.750 
04:20	30.4	30.4	30.4	65	20.1	2	6	270	0.00	29.751 
04:25	30.4	30.4	30.4	66	20.4	1	3	315	0.00	29.751 
04:30	30.4	30.4	30.4	67	20.8	1	3	270	0.00	29.751 
04:35	30.3	30.3	30.3	68	21.0	1	4	338	0.00	29.751 
04:40	30.3	30.3	30.3	68	21.0	0	1	338	0.00	29.751 
04:45	30.3	30.3	30.3	69	21.4	1	4	338	0.00	29.749 
04:50	30.3	30.3	30.3	70	21.7	1	2	248	0.00	29.749 
04:55	30.1	30.1	30.1	70	21.5	1	4	248	0.00	29.750 
05:00	30.3	30.3	30.3	71	22.0	1	3	248	0.00	29.750 
05:05	30.3	30.3	30.3	71	22.0	1	4	270	0.00	29.749 
05:10	30.3	30.3	30.3	72	22.4	1	3	270	0.00	29.750 
05:15	30.4	30.4	30.4	72	22.5	1	5	248	0.00	29.750 
05:20	30.4	30.4	30.4	72	22.5	1	4	248	0.00	29.750 
05:25	30.6	30.6	30.6	72	22.7	1	3	338	0.00	29.750 
05:30	30.6	30.6	30.6	72	22.7	1	4	315	0.00	29.750 
05:35	30.7	30.7	30.7	71	22.4	2	4	270	0.00	29.751 
05:40	30.7	30.7	30.7	70	22.1	1	4	338	0.00	29.753 
05:45	30.9	30.9	30.9	69	21.9	2	6	338	0.00	29.754 
05:50	31.0	31.0	31.0	66	21.0	2	6	292	0.00	29.755 
05:55	31.2	31.2	31.2	65	20.8	1	6	292	0.00	29.754 
06:00	31.2	31.2	31.2	64	20.5	2	4	292	0.00	29.756 
06:05	31.2	31.2	31.2	63	20.1	2	6	315	0.00	29.759 
06:10	31.2	31.2	31.2	62	19.7	2	6	315	0.00	29.761 
06:15	31.2	31.2	31.2	62	19.7	1	5	338	0.00	29.764 
06:20	31.2	31.2	31.2	62	19.7	2	5	338	0.00	29.767 
06:25	31.2	31.2	31.2	61	19.3	2	7	315	0.00	29.765 
06:30	31.2	31.2	31.2	60	19.0	2	5	315	0.00	29.769 
06:35	31.2	31.2	31.2	61	19.3	1	6	338	0.00	29.770 
06:40	31.2	31.2	31.2	60	19.0	2	3	292	0.00	29.770 
06:45	31.2	31.2	31.2	61	19.3	1	5	270	0.00	29.771 
06:50	31.2	31.2	31.2	60	19.0	2	4	315	0.00	29.772 
06:55	31.2	31.2	31.2	60	19.0	1	5	315	0.00	29.771 
07:00	31.2	31.2	31.2	60	19.0	1	5	315	0.00	29.773 
07:05	31.2	31.2	31.2	61	19.3	1	5	292	0.00	29.775 
07:10	31.0	31.0	31.0	62	19.5	2	4	292	0.00	29.775 
07:15	31.0	31.0	31.0	62	19.5	1	4	338	0.00	29.780 
07:20	31.0	31.0	31.0	63	19.9	2	6	338	0.00	29.778 
07:25	31.0	31.0	31.0	63	19.9	1	5	0	0.00	29.782 
07:30	31.0	31.0	31.0	64	20.3	1	3	338	0.00	29.781 
07:35	31.0	31.0	31.0	64	20.3	1	3	338	0.00	29.780 
07:40	31.2	31.2	31.2	64	20.5	2	6	270	0.00	29.783 
07:45	31.2	31.2	31.2	64	20.5	1	6	292	0.00	29.783 
07:50	31.3	31.3	31.3	65	20.9	2	6	248	0.00	29.781 
07:55	31.5	31.5	31.5	65	21.1	2	6	270	0.00	29.783 
08:00	31.5	31.5	31.5	65	21.1	2	5	315	0.00	29.783 
08:05	31.6	31.6	31.6	65	21.2	1	4	270	0.00	29.784 
08:10	31.8	31.8	31.8	65	21.4	2	5	270	0.00	29.783 
08:15	31.8	31.8	31.8	65	21.4	2	7	292	0.00	29.783 
08:20	31.8	31.8	31.8	65	21.4	2	5	270	0.00	29.785 
08:25	31.8	31.8	31.8	66	21.8	2	5	248	0.00	29.784 
08:30	31.8	31.8	31.8	66	21.8	3	6	315	0.00	29.783 
08:35	31.9	31.9	31.9	67	22.2	2	6	270	0.00	29.784 
08:40	32.4	32.4	32.4	65	22.0	2	8	270	0.00	29.784 
08:45	32.8	32.8	32.8	65	22.3	2	5	270	0.00	29.784 
08:50	33.4	33.4	33.4	63	22.2	2	6	270	0.01	29.781 
08:55	33.7	33.7	33.7	62	22.1	2	6	315	0.00	29.778 
09:00	34.4	34.4	34.4	62	22.7	2	5	315	0.00	29.775 
09:05	35.0	35.0	35.0	61	22.9	3	7	315	0.00	29.775 
09:10	34.7	34.7	34.7	59	21.9	3	10	270	0.00	29.774 
09:15	34.7	34.7	34.7	60	22.3	3	5	270	0.00	29.774 
09:20	34.6	34.6	34.6	61	22.6	3	6	270	0.00	29.773 
09:25	34.9	34.9	34.9	60	22.4	3	7	292	0.00	29.778 
09:30	35.0	35.0	35.0	59	22.1	3	6	315	0.00	29.779 
09:35	34.6	34.6	34.6	61	22.6	3	7	270	0.00	29.782 
09:40	34.4	34.4	34.4	61	22.4	3	10	270	0.00	29.781 
09:45	34.3	30.7	34.3	61	22.3	4	8	270	0.00	29.785 
09:50	34.6	30.1	34.6	61	22.6	5	12	270	0.00	29.785 
09:55	34.4	30.8	34.4	59	21.6	4	11	315	0.00	29.785 
10:00	34.6	34.6	34.6	59	21.8	3	9	315	0.00	29.782 
10:05	35.0	35.0	35.0	59	22.1	3	6	292	0.00	29.784 
10:10	35.0	31.5	35.0	58	21.7	4	9	315	0.00	29.785 
10:15	34.7	34.7	34.7	58	21.5	3	10	315	0.00	29.786 
10:20	35.0	35.0	35.0	60	22.5	3	10	270	0.00	29.785 
10:25	35.0	31.5	35.0	59	22.1	4	12	270	0.00	29.784 
10:30	34.6	34.6	34.6	59	21.8	3	8	270	0.00	29.785 
10:35	34.9	34.9	34.9	58	21.6	3	8	270	0.00	29.785 
10:40	35.9	35.9	35.9	57	22.2	3	6	270	0.00	29.783 
10:45	36.0	36.0	36.0	54	21.0	3	6	248	0.00	29.782 
10:50	35.5	35.5	35.5	55	21.0	3	6	270	0.00	29.783 
10:55	34.7	34.7	34.7	58	21.5	3	10	292	0.00	29.784 
11:00	34.1	34.1	34.1	62	22.5	3	6	270	0.00	29.787 
11:05	33.5	33.5	33.5	66	23.4	3	6	270	0.00	29.788 
11:10	33.7	33.7	33.7	65	23.2	2	7	270	0.00	29.784 
11:15	34.9	34.9	34.9	63	23.6	2	7	270	0.00	29.777 
11:20	36.3	36.3	36.3	58	23.0	2	6	270	0.00	29.777 
11:25	36.0	36.0	36.0	58	22.7	3	8	292	0.00	29.773 
11:30	35.3	31.9	35.3	61	23.2	4	10	270	0.00	29.774 
11:35	34.4	34.4	34.4	62	22.7	3	7	270	0.00	29.773 
11:40	34.7	34.7	34.7	64	23.8	3	9	270	0.00	29.774 
11:45	35.5	35.5	35.5	62	23.8	3	8	270	0.00	29.770 
11:50	36.2	36.2	36.2	58	22.9	3	9	270	0.00	29.770 
11:55	36.2	36.2	36.2	58	22.9	3	8	270	0.00	29.769 
12:00	35.9	35.9	35.9	58	22.6	3	10	270	0.00	29.767 
12:05	36.3	36.3	36.3	56	22.1	3	6	270	0.00	29.767 
12:10	36.2	36.2	36.2	56	22.0	3	9	270	0.00	29.765 
12:15	36.6	36.6	36.6	56	22.4	2	6	315	0.00	29.761 
12:20	37.0	37.0	37.0	54	21.9	3	6	270	0.00	29.759 
12:25	36.9	36.9	36.9	54	21.8	3	6	292	0.00	29.758 
12:30	36.2	32.0	36.2	55	21.6	5	9	270	0.00	29.763 
12:35	35.9	32.6	35.9	55	21.3	4	11	270	0.00	29.762 
12:40	36.8	33.6	36.8	57	23.0	4	11	292	0.00	29.758 
12:45	36.9	36.9	36.9	54	21.8	3	9	270	0.00	29.755 
12:50	37.0	33.9	37.0	53	21.5	4	11	270	0.00	29.754 
12:55	36.9	33.7	36.9	51	20.5	4	10	292	0.00	29.754 
13:00	37.0	33.9	37.0	52	21.0	4	11	270	0.00	29.752 
13:05	37.8	34.8	37.8	50	20.8	4	12	292	0.00	29.750 
13:10	38.3	38.3	38.3	50	21.3	3	8	270	0.00	29.750 
13:15	38.0	35.0	38.0	49	20.6	4	9	270	0.00	29.748 
13:20	38.0	35.0	38.0	50	21.0	4	10	270	0.00	29.746 
13:25	38.3	35.4	38.3	47	19.9	4	9	270	0.00	29.748 
13:30	38.3	35.4	38.3	46	19.4	4	10	292	0.00	29.741 
13:35	38.0	38.0	38.0	48	20.1	3	6	270	0.00	29.745 
13:40	38.2	35.2	38.2	47	19.8	4	9	270	0.00	29.742 
13:45	38.3	38.3	38.3	48	20.4	3	7	270	0.00	29.741 
13:50	38.8	38.8	38.8	48	20.8	3	7	270	0.00	29.740 
13:55	38.6	35.7	38.6	48	20.6	4	12	315	0.00	29.737 
14:00	38.3	35.4	38.3	49	20.8	4	9	270	0.00	29.737 
14:05	38.8	35.9	38.8	48	20.8	4	12	270	0.00	29.738 
14:10	38.8	35.9	38.8	46	19.8	4	9	315	0.00	29.737 
14:15	38.9	34.4	38.9	46	19.9	6	16	270	0.00	29.736 
14:20	39.3	35.7	39.3	48	21.3	5	11	270	0.00	29.734 
14:25	39.1	36.3	39.1	46	20.1	4	9	270	0.00	29.733 
14:30	39.1	36.3	39.1	45	19.6	4	9	270	0.00	29.733 
14:35	39.3	36.5	39.3	47	20.8	4	11	270	0.00	29.731 
14:40	40.8	37.4	40.8	45	21.1	5	10	270	0.00	29.728 
14:45	40.9	37.5	40.9	42	19.6	5	10	270	0.00	29.727 
14:50	40.6	37.2	40.6	43	19.9	5	11	270	0.00	29.725 
14:55	40.6	38.0	40.6	43	19.9	4	7	270	0.00	29.725 
15:00	40.3	40.3	40.3	44	20.1	3	6	270	0.00	29.722 
15:05	40.5	37.9	40.5	43	19.8	4	7	270	0.00	29.721 
15:10	40.3	37.7	40.3	43	19.6	4	9	292	0.00	29.722 
15:15	40.1	36.6	40.1	43	19.4	5	11	292	0.00	29.723 
15:20	40.5	37.9	40.5	44	20.3	4	10	270	0.00	29.724 
15:25	40.9	38.4	40.9	43	20.1	4	11	270	0.00	29.721 
15:30	40.9	38.4	40.9	43	20.1	4	9	292	0.00	29.723 
15:35	40.8	37.4	40.8	44	20.6	5	10	270	0.00	29.727 
15:40	40.6	37.2	40.6	42	19.3	5	13	338	0.00	29.730 
15:45	41.3	38.0	41.3	43	20.5	5	11	270	0.00	29.727 
15:50	41.9	38.7	41.9	41	19.9	5	14	270	0.00	29.728 
15:55	41.3	38.8	41.3	41	19.4	4	9	270	0.00	29.731 
16:00	41.1	38.6	41.1	42	19.8	4	12	315	0.00	29.733 
16:05	40.8	38.2	40.8	43	20.1	4	12	292	0.00	29.731 
16:10	40.8	38.2	40.8	44	20.6	4	11	270	0.00	29.731 
16:15	41.3	38.0	41.3	41	19.4	5	11	270	0.00	29.735 
16:20	41.3	38.0	41.3	41	19.4	5	11	270	0.00	29.734 
16:25	41.2	37.9	41.2	39	18.1	5	13	315	0.00	29.733 
16:30	40.9	38.4	40.9	41	19.0	4	8	270	0.00	29.736 
16:35	40.6	38.0	40.6	41	18.8	4	7	292	0.00	29.740 
16:40	40.5	37.9	40.5	41	18.7	4	7	315	0.00	29.744 
16:45	40.3	40.3	40.3	42	19.1	3	7	292	0.00	29.745 
16:50	40.2	37.5	40.2	41	18.4	4	11	338	0.00	29.746 
16:55	40.2	36.7	40.2	41	18.4	5	13	270	0.00	29.744 
17:00	40.1	37.4	40.1	41	18.3	4	11	315	0.00	29.747 
17:05	40.2	36.7	40.2	41	18.4	5	12	270	0.00	29.747 
17:10	40.3	40.3	40.3	42	19.1	3	7	315	0.00	29.749 
17:15	40.5	37.9	40.5	40	18.1	4	10	315	0.00	29.748 
17:20	40.5	40.5	40.5	42	19.2	3	7	338	0.00	29.748 
17:25	40.3	40.3	40.3	41	18.5	3	7	292	0.00	29.749 
17:30	40.3	40.3	40.3	42	19.1	3	9	292	0.00	29.751 
17:35	40.2	40.2	40.2	41	18.4	3	11	292	0.00	29.750 
17:40	40.3	40.3	40.3	42	19.1	2	6	292	0.00	29.751 
17:45	40.3	40.3	40.3	40	17.9	3	7	292	0.00	29.757 
17:50	40.3	37.7	40.3	39	17.3	4	11	270	0.00	29.758 
17:55	40.3	40.3	40.3	39	17.3	3	10	270	0.00	29.763 
18:00	40.3	40.3	40.3	40	17.9	2	9	315	0.00	29.758 
18:05	40.2	40.2	40.2	40	17.8	2	7	248	0.00	29.762 
18:10	40.2	40.2	40.2	39	17.2	3	6	270	0.00	29.762 
18:15	40.2	40.2	40.2	39	17.2	3	6	315	0.00	29.759 
18:20	40.1	40.1	40.1	39	17.2	2	5	315	0.00	29.761 
18:25	40.1	40.1	40.1	39	17.2	1	4	248	0.00	29.759 
18:30	40.1	40.1	40.1	41	18.3	1	3	338	0.00	29.755 
18:35	40.1	40.1	40.1	40	17.7	1	4	338	0.00	29.754 
18:40	40.1	40.1	40.1	39	17.2	2	5	270	0.00	29.753 
18:45	40.1	40.1	40.1	39	17.2	1	3	225	0.00	29.751 
18:50	40.1	40.1	40.1	39	17.2	1	3	225	0.00	29.751 
18:55	40.1	40.1	40.1	39	17.2	1	2	270	0.00	29.751 
19:00	40.1	40.1	40.1	39	17.2	1	4	225	0.00	29.750 
19:05	40.1	40.1	40.1	39	17.2	1	3	248	0.00	29.748 
19:10	39.9	39.9	39.9	39	17.0	1	2	248	0.00	29.749 
19:15	39.9	39.9	39.9	39	17.0	0	2	248	0.00	29.749 
19:20	39.8	39.8	39.8	40	17.5	0	2	248	0.00	29.749 
19:25	39.8	39.8	39.8	39	16.9	0	2	248	0.00	29.749 
19:30	39.8	39.8	39.8	40	17.5	0	1	248	0.00	29.750 
19:35	39.6	39.6	39.6	40	17.3	0	2	248	0.00	29.750 
19:40	39.8	39.8	39.8	39	16.9	1	4	248	0.00	29.749 
19:45	39.8	39.8	39.8	39	16.9	0	2	248	0.00	29.749 
19:50	39.8	39.8	39.8	39	16.9	0	2	248	0.00	29.750 
19:55	39.6	39.6	39.6	40	17.3	0	1	248	0.00	29.751 
20:00	39.6	39.6	39.6	40	17.3	0	2	248	0.00	29.752 
20:05	39.5	39.5	39.5	40	17.2	0	2	248	0.00	29.752 
20:10	39.5	39.5	39.5	41	17.8	0	1	248	0.00	29.753 
20:15	39.3	39.3	39.3	41	17.6	0	1	248	0.00	29.754 
20:20	39.2	39.2	39.2	40	16.9	0	2	248	0.00	29.756 
20:25	39.2	39.2	39.2	41	17.5	1	3	248	0.00	29.758 
20:30	39.2	39.2	39.2	41	17.5	0	1	248	0.00	29.759 
20:35	39.2	39.2	39.2	41	17.5	0	2	248	0.00	29.760 
20:40	39.2	39.2	39.2	41	17.5	1	3	248	0.00	29.760 
20:45	39.2	39.2	39.2	41	17.5	1	3	248	0.00	29.760 
20:50	39.2	39.2	39.2	41	17.5	1	3	248	0.00	29.760 
20:55	39.2	39.2	39.2	41	17.5	0	2	248	0.00	29.761 
21:00	39.2	39.2	39.2	41	17.5	1	4	248	0.00	29.762 
21:05	39.2	39.2	39.2	41	17.5	1	5	248	0.00	29.760 
21:10	39.2	39.2	39.2	41	17.5	1	3	248	0.00	29.760 
21:15	39.2	39.2	39.2	40	16.9	1	3	248	0.00	29.760 
21:20	39.2	39.2	39.2	40	16.9	1	3	248	0.00	29.760 
21:25	39.2	39.2	39.2	40	16.9	1	4	248	0.00	29.759 
21:30	39.2	39.2	39.2	40	16.9	1	5	248	0.00	29.755 
21:35	39.2	39.2	39.2	40	16.9	0	2	248	0.00	29.755 
21:40	39.2	39.2	39.2	40	16.9	1	3	225	0.00	29.754 
21:45	39.2	39.2	39.2	40	16.9	0	2	225	0.00	29.753 
21:50	39.2	39.2	39.2	40	16.9	1	4	248	0.00	29.753 
21:55	39.2	39.2	39.2	40	16.9	1	3	248	0.00	29.751 
22:00	39.2	39.2	39.2	40	16.9	1	4	248	0.00	29.750 
22:05	39.2	39.2	39.2	40	16.9	1	5	248	0.00	29.751 
22:10	39.2	39.2	39.2	40	16.9	1	5	248	0.00	29.750 
22:15	39.2	39.2	39.2	40	16.9	1	3	248	0.00	29.750 
22:20	39.2	39.2	39.2	40	16.9	1	4	248	0.00	29.750 
22:25	39.2	39.2	39.2	40	16.9	0	2	248	0.00	29.749 
22:30	39.2	39.2	39.2	40	16.9	1	5	248	0.00	29.749 
22:35	39.2	39.2	39.2	40	16.9	0	2	248	0.00	29.749 
22:40	39.1	39.1	39.1	40	16.8	1	4	248	0.00	29.748 
22:45	39.1	39.1	39.1	40	16.8	1	4	248	0.00	29.748 
22:50	39.1	39.1	39.1	41	17.4	1	4	248	0.00	29.748 
22:55	38.9	38.9	38.9	41	17.2	1	3	248	0.00	29.747 
23:00	38.9	38.9	38.9	41	17.2	2	4	248	0.00	29.746 
23:05	38.9	38.9	38.9	41	17.2	2	4	248	0.00	29.744 
23:10	38.8	38.8	38.8	41	17.1	1	3	248	0.00	29.744 
23:15	38.5	38.5	38.5	42	17.4	1	3	248	0.00	29.745 
23:20	38.3	38.3	38.3	42	17.2	1	3	248	0.00	29.744 
23:25	38.2	38.2	38.2	42	17.2	0	3	248	0.00	29.742 
23:30	38.0	38.0	38.0	43	17.5	1	4	248	0.00	29.740 
23:35	37.9	37.9	37.9	44	18.0	1	6	248	0.00	29.737 
23:40	37.9	37.9	37.9	45	18.5	1	5	248	0.00	29.734 
23:45	37.8	37.8	37.8	47	19.4	1	4	248	0.00	29.734 
23:50	37.5	37.5	37.5	48	19.6	2	8	248	0.00	29.732 
23:55	37.3	37.3	37.3	49	19.9	1	5	270	0.00	29.732 

CoCoRaHS
IN-AL-39
A2 Web Hosting
Creative Commons License
GoDaddy
search engine by freefind advanced

loaded 2018-11-15 15:41:17 • last modified 2010-11-18 10:43:29
Privacy PolicyDisclaimer
• wx.awcolley.com is powered by PmWiki v.2002016 •
• all content (unless otherwise noted) © 2018 A W Colley